Terminal Aerodrome Forecast
Issued by NWS

Home | Current Version | Previous Version | Text Only | Print | Product List | Glossary On
Versions: 1 2 3 4 5 6 7 8 9 10 11 12 13 14
000
FTUS46 KSEW 280529
TAFOLM
TAF
KOLM 280529Z 2806/2906 13004KT P6SM BKN090 OVC200
     FM280900 18004KT P6SM BKN050 OVC080
     FM281100 20004KT P6SM -RA BKN025 OVC050
     FM282100 20006KT P6SM BKN040 BKN080 PROB30 2822/2902 -SHRA=

USA.gov is the U.S. government's official web portal to all federal, state and local government web resources and services.